sensor_id;sensor_type;location;lat;lon;timestamp;P1;durP1;ratioP1;P2;durP2;ratioP2
2892;SDS011;1456;51.840;12.184;2023-05-10T00:00:23;4.80;;;4.70;;
2892;SDS011;1456;51.840;12.184;2023-05-10T00:02:50;4.97;;;4.97;;
2892;SDS011;1456;51.840;12.184;2023-05-10T00:05:16;5.03;;;4.93;;
2892;SDS011;1456;51.840;12.184;2023-05-10T00:07:41;5.77;;;5.67;;
2892;SDS011;1456;51.840;12.184;2023-05-10T00:10:10;4.53;;;4.53;;
2892;SDS011;1456;51.840;12.184;2023-05-10T00:12:37;4.87;;;4.77;;
2892;SDS011;1456;51.840;12.184;2023-05-10T00:15:03;4.70;;;4.60;;
2892;SDS011;1456;51.840;12.184;2023-05-10T00:17:31;5.33;;;4.43;;
2892;SDS011;1456;51.840;12.184;2023-05-10T00:19:57;3.83;;;3.83;;
2892;SDS011;1456;51.840;12.184;2023-05-10T00:22:23;4.43;;;4.33;;
2892;SDS011;1456;51.840;12.184;2023-05-10T00:24:48;5.00;;;4.87;;
2892;SDS011;1456;51.840;12.184;2023-05-10T00:27:15;4.67;;;4.67;;
2892;SDS011;1456;51.840;12.184;2023-05-10T00:29:41;4.90;;;4.80;;
2892;SDS011;1456;51.840;12.184;2023-05-10T00:32:11;4.37;;;4.37;;
2892;SDS011;1456;51.840;12.184;2023-05-10T00:34:38;4.83;;;4.63;;
2892;SDS011;1456;51.840;12.184;2023-05-10T00:37:04;3.67;;;3.67;;
2892;SDS011;1456;51.840;12.184;2023-05-10T00:39:30;3.70;;;3.70;;
2892;SDS011;1456;51.840;12.184;2023-05-10T00:41:56;3.73;;;3.73;;
2892;SDS011;1456;51.840;12.184;2023-05-10T00:44:21;4.00;;;3.90;;
2892;SDS011;1456;51.840;12.184;2023-05-10T00:46:50;3.10;;;3.10;;
2892;SDS011;1456;51.840;12.184;2023-05-10T00:49:16;4.37;;;4.17;;
2892;SDS011;1456;51.840;12.184;2023-05-10T00:51:43;4.13;;;4.13;;
2892;SDS011;1456;51.840;12.184;2023-05-10T00:54:11;3.87;;;3.60;;
2892;SDS011;1456;51.840;12.184;2023-05-10T00:56:38;2.80;;;2.80;;
2892;SDS011;1456;51.840;12.184;2023-05-10T00:59:07;3.77;;;3.67;;
2892;SDS011;1456;51.840;12.184;2023-05-10T01:01:35;3.40;;;3.30;;
2892;SDS011;1456;51.840;12.184;2023-05-10T01:04:01;3.17;;;3.07;;
2892;SDS011;1456;51.840;12.184;2023-05-10T01:06:29;3.00;;;3.00;;
2892;SDS011;1456;51.840;12.184;2023-05-10T01:08:55;3.03;;;3.03;;
2892;SDS011;1456;51.840;12.184;2023-05-10T01:11:21;3.47;;;3.47;;
2892;SDS011;1456;51.840;12.184;2023-05-10T01:13:47;3.33;;;3.17;;
2892;SDS011;1456;51.840;12.184;2023-05-10T01:16:18;3.10;;;3.00;;
2892;SDS011;1456;51.840;12.184;2023-05-10T01:18:43;3.10;;;3.10;;
2892;SDS011;1456;51.840;12.184;2023-05-10T01:21:17;2.13;;;2.13;;
2892;SDS011;1456;51.840;12.184;2023-05-10T01:50:09;1.83;;;1.83;;
2892;SDS011;1456;51.840;12.184;2023-05-10T01:52:50;1.10;;;1.10;;
2892;SDS011;1456;51.840;12.184;2023-05-10T01:55:20;1.47;;;1.47;;
2892;SDS011;1456;51.840;12.184;2023-05-10T01:57:48;1.40;;;1.40;;
2892;SDS011;1456;51.840;12.184;2023-05-10T02:00:23;1.50;;;1.50;;
2892;SDS011;1456;51.840;12.184;2023-05-10T02:02:49;1.27;;;1.27;;
2892;SDS011;1456;51.840;12.184;2023-05-10T02:05:17;1.80;;;1.80;;
2892;SDS011;1456;51.840;12.184;2023-05-10T02:07:46;1.50;;;1.40;;
2892;SDS011;1456;51.840;12.184;2023-05-10T02:10:13;2.40;;;2.30;;
2892;SDS011;1456;51.840;12.184;2023-05-10T02:12:46;1.77;;;1.73;;
2892;SDS011;1456;51.840;12.184;2023-05-10T02:15:15;1.10;;;1.10;;
2892;SDS011;1456;51.840;12.184;2023-05-10T02:20:14;2.50;;;2.40;;
2892;SDS011;1456;51.840;12.184;2023-05-10T02:22:41;1.73;;;1.63;;
2892;SDS011;1456;51.840;12.184;2023-05-10T02:25:09;1.50;;;1.50;;
2892;SDS011;1456;51.840;12.184;2023-05-10T02:27:38;2.17;;;2.07;;
2892;SDS011;1456;51.840;12.184;2023-05-10T02:30:05;1.40;;;1.40;;
2892;SDS011;1456;51.840;12.184;2023-05-10T02:32:33;2.00;;;2.00;;
2892;SDS011;1456;51.840;12.184;2023-05-10T02:35:01;1.50;;;1.50;;
2892;SDS011;1456;51.840;12.184;2023-05-10T02:37:28;1.60;;;1.60;;
2892;SDS011;1456;51.840;12.184;2023-05-10T02:39:55;1.90;;;1.87;;
2892;SDS011;1456;51.840;12.184;2023-05-10T02:42:26;1.67;;;1.37;;
2892;SDS011;1456;51.840;12.184;2023-05-10T02:44:56;1.63;;;1.57;;
2892;SDS011;1456;51.840;12.184;2023-05-10T02:47:25;1.20;;;1.20;;
2892;SDS011;1456;51.840;12.184;2023-05-10T02:49:53;1.63;;;1.53;;
2892;SDS011;1456;51.840;12.184;2023-05-10T02:52:20;1.33;;;1.33;;
2892;SDS011;1456;51.840;12.184;2023-05-10T02:54:52;1.10;;;1.10;;
2892;SDS011;1456;51.840;12.184;2023-05-10T02:57:31;2.50;;;2.40;;
2892;SDS011;1456;51.840;12.184;2023-05-10T03:00:01;2.27;;;1.70;;
2892;SDS011;1456;51.840;12.184;2023-05-10T03:02:31;1.93;;;1.93;;
2892;SDS011;1456;51.840;12.184;2023-05-10T03:04:57;1.17;;;1.17;;
2892;SDS011;1456;51.840;12.184;2023-05-10T03:07:24;1.63;;;1.57;;
2892;SDS011;1456;51.840;12.184;2023-05-10T03:09:49;1.43;;;1.10;;
2892;SDS011;1456;51.840;12.184;2023-05-10T03:20:37;1.60;;;1.37;;
2892;SDS011;1456;51.840;12.184;2023-05-10T03:25:43;1.60;;;1.50;;
2892;SDS011;1456;51.840;12.184;2023-05-10T03:28:11;1.53;;;1.43;;
2892;SDS011;1456;51.840;12.184;2023-05-10T03:30:39;1.80;;;1.00;;
2892;SDS011;1456;51.840;12.184;2023-05-10T03:33:07;0.90;;;0.90;;
2892;SDS011;1456;51.840;12.184;2023-05-10T03:35:35;1.20;;;1.20;;
2892;SDS011;1456;51.840;12.184;2023-05-10T03:38:03;0.97;;;0.97;;
2892;SDS011;1456;51.840;12.184;2023-05-10T03:40:29;0.77;;;0.77;;
2892;SDS011;1456;51.840;12.184;2023-05-10T03:42:56;0.80;;;0.80;;
2892;SDS011;1456;51.840;12.184;2023-05-10T03:45:26;0.80;;;0.80;;
2892;SDS011;1456;51.840;12.184;2023-05-10T03:47:54;1.23;;;1.23;;
2892;SDS011;1456;51.840;12.184;2023-05-10T03:50:20;1.00;;;1.00;;
2892;SDS011;1456;51.840;12.184;2023-05-10T03:52:47;1.77;;;1.63;;
2892;SDS011;1456;51.840;12.184;2023-05-10T03:55:13;0.90;;;0.90;;
2892;SDS011;1456;51.840;12.184;2023-05-10T03:57:40;0.80;;;0.80;;
2892;SDS011;1456;51.840;12.184;2023-05-10T04:00:06;0.60;;;0.60;;
2892;SDS011;1456;51.840;12.184;2023-05-10T04:02:32;1.17;;;0.97;;
2892;SDS011;1456;51.840;12.184;2023-05-10T04:07:29;1.13;;;1.13;;
2892;SDS011;1456;51.840;12.184;2023-05-10T04:09:55;1.57;;;1.57;;
2892;SDS011;1456;51.840;12.184;2023-05-10T04:12:21;2.00;;;2.00;;
2892;SDS011;1456;51.840;12.184;2023-05-10T04:14:48;0.93;;;0.93;;
2892;SDS011;1456;51.840;12.184;2023-05-10T04:17:14;0.87;;;0.87;;
2892;SDS011;1456;51.840;12.184;2023-05-10T04:19:40;1.47;;;1.37;;
2892;SDS011;1456;51.840;12.184;2023-05-10T04:22:06;0.70;;;0.70;;
2892;SDS011;1456;51.840;12.184;2023-05-10T04:24:33;1.80;;;0.77;;
2892;SDS011;1456;51.840;12.184;2023-05-10T04:26:59;1.03;;;1.03;;
2892;SDS011;1456;51.840;12.184;2023-05-10T04:29:24;0.73;;;0.73;;
2892;SDS011;1456;51.840;12.184;2023-05-10T04:31:51;1.10;;;1.10;;
2892;SDS011;1456;51.840;12.184;2023-05-10T04:34:20;1.13;;;1.13;;
2892;SDS011;1456;51.840;12.184;2023-05-10T04:36:46;1.43;;;1.43;;
2892;SDS011;1456;51.840;12.184;2023-05-10T04:41:40;0.80;;;0.80;;
2892;SDS011;1456;51.840;12.184;2023-05-10T04:44:06;1.00;;;1.00;;
2892;SDS011;1456;51.840;12.184;2023-05-10T04:46:31;1.37;;;1.37;;
2892;SDS011;1456;51.840;12.184;2023-05-10T04:48:57;0.90;;;0.90;;
2892;SDS011;1456;51.840;12.184;2023-05-10T04:51:23;1.13;;;1.13;;
2892;SDS011;1456;51.840;12.184;2023-05-10T04:53:48;2.47;;;2.30;;
2892;SDS011;1456;51.840;12.184;2023-05-10T04:56:14;1.37;;;1.37;;
2892;SDS011;1456;51.840;12.184;2023-05-10T04:58:44;1.10;;;1.10;;
2892;SDS011;1456;51.840;12.184;2023-05-10T05:01:09;1.50;;;1.50;;
2892;SDS011;1456;51.840;12.184;2023-05-10T05:03:36;1.50;;;1.50;;
2892;SDS011;1456;51.840;12.184;2023-05-10T05:08:32;1.30;;;1.30;;
2892;SDS011;1456;51.840;12.184;2023-05-10T05:10:58;1.50;;;1.50;;
2892;SDS011;1456;51.840;12.184;2023-05-10T05:13:24;2.63;;;2.53;;
2892;SDS011;1456;51.840;12.184;2023-05-10T05:15:50;5.57;;;4.03;;
2892;SDS011;1456;51.840;12.184;2023-05-10T05:18:15;1.20;;;1.20;;
2892;SDS011;1456;51.840;12.184;2023-05-10T05:20:43;2.10;;;2.00;;
2892;SDS011;1456;51.840;12.184;2023-05-10T05:23:09;2.13;;;2.03;;
2892;SDS011;1456;51.840;12.184;2023-05-10T05:25:34;2.00;;;2.00;;
2892;SDS011;1456;51.840;12.184;2023-05-10T05:28:00;1.63;;;1.63;;
2892;SDS011;1456;51.840;12.184;2023-05-10T05:30:26;1.90;;;1.90;;
2892;SDS011;1456;51.840;12.184;2023-05-10T05:32:57;4.30;;;3.90;;
2892;SDS011;1456;51.840;12.184;2023-05-10T05:35:23;1.63;;;1.63;;
2892;SDS011;1456;51.840;12.184;2023-05-10T05:37:50;2.13;;;2.13;;
2892;SDS011;1456;51.840;12.184;2023-05-10T05:40:17;2.10;;;2.10;;
2892;SDS011;1456;51.840;12.184;2023-05-10T05:42:43;2.60;;;2.60;;
2892;SDS011;1456;51.840;12.184;2023-05-10T05:45:10;3.53;;;3.47;;
2892;SDS011;1456;51.840;12.184;2023-05-10T05:47:38;3.20;;;3.20;;
2892;SDS011;1456;51.840;12.184;2023-05-10T05:50:09;3.90;;;3.80;;
2892;SDS011;1456;51.840;12.184;2023-05-10T05:52:34;4.00;;;3.90;;
2892;SDS011;1456;51.840;12.184;2023-05-10T05:55:01;3.53;;;3.53;;
2892;SDS011;1456;51.840;12.184;2023-05-10T06:00:03;5.33;;;5.23;;
2892;SDS011;1456;51.840;12.184;2023-05-10T06:02:31;4.67;;;4.67;;
2892;SDS011;1456;51.840;12.184;2023-05-10T06:04:59;4.57;;;4.57;;
2892;SDS011;1456;51.840;12.184;2023-05-10T06:07:26;5.27;;;5.07;;
2892;SDS011;1456;51.840;12.184;2023-05-10T06:09:52;10.63;;;5.70;;
2892;SDS011;1456;51.840;12.184;2023-05-10T06:12:20;4.97;;;4.97;;
2892;SDS011;1456;51.840;12.184;2023-05-10T06:14:46;5.43;;;5.33;;
2892;SDS011;1456;51.840;12.184;2023-05-10T06:17:11;5.20;;;5.20;;
2892;SDS011;1456;51.840;12.184;2023-05-10T06:19:37;6.60;;;6.50;;
2892;SDS011;1456;51.840;12.184;2023-05-10T06:22:03;6.17;;;6.07;;
2892;SDS011;1456;51.840;12.184;2023-05-10T06:24:28;6.20;;;6.20;;
2892;SDS011;1456;51.840;12.184;2023-05-10T06:26:58;6.80;;;6.70;;
2892;SDS011;1456;51.840;12.184;2023-05-10T06:29:27;7.30;;;7.20;;
2892;SDS011;1456;51.840;12.184;2023-05-10T06:31:54;7.33;;;7.23;;
2892;SDS011;1456;51.840;12.184;2023-05-10T06:34:20;7.30;;;7.20;;
2892;SDS011;1456;51.840;12.184;2023-05-10T06:36:46;7.37;;;7.27;;
2892;SDS011;1456;51.840;12.184;2023-05-10T06:39:11;7.57;;;7.47;;
2892;SDS011;1456;51.840;12.184;2023-05-10T06:41:37;7.60;;;7.50;;
2892;SDS011;1456;51.840;12.184;2023-05-10T06:44:03;7.27;;;7.17;;
2892;SDS011;1456;51.840;12.184;2023-05-10T06:49:03;7.37;;;7.20;;
2892;SDS011;1456;51.840;12.184;2023-05-10T06:51:30;7.50;;;7.40;;
2892;SDS011;1456;51.840;12.184;2023-05-10T06:53:56;7.40;;;7.30;;
2892;SDS011;1456;51.840;12.184;2023-05-10T06:56:24;7.10;;;7.00;;
2892;SDS011;1456;51.840;12.184;2023-05-10T06:58:50;7.70;;;7.60;;
2892;SDS011;1456;51.840;12.184;2023-05-10T07:01:17;7.80;;;7.70;;
2892;SDS011;1456;51.840;12.184;2023-05-10T07:03:42;7.70;;;7.60;;
2892;SDS011;1456;51.840;12.184;2023-05-10T07:06:08;7.40;;;7.30;;
2892;SDS011;1456;51.840;12.184;2023-05-10T07:08:35;7.30;;;7.20;;
2892;SDS011;1456;51.840;12.184;2023-05-10T07:11:01;7.63;;;7.43;;
2892;SDS011;1456;51.840;12.184;2023-05-10T07:13:34;7.87;;;7.77;;
2892;SDS011;1456;51.840;12.184;2023-05-10T07:16:01;7.50;;;7.40;;
2892;SDS011;1456;51.840;12.184;2023-05-10T07:18:27;7.63;;;7.53;;
2892;SDS011;1456;51.840;12.184;2023-05-10T07:20:53;8.30;;;8.20;;
2892;SDS011;1456;51.840;12.184;2023-05-10T07:23:19;7.70;;;7.60;;
2892;SDS011;1456;51.840;12.184;2023-05-10T07:25:46;8.43;;;8.33;;
2892;SDS011;1456;51.840;12.184;2023-05-10T07:28:13;7.97;;;7.87;;
2892;SDS011;1456;51.840;12.184;2023-05-10T07:30:39;7.50;;;7.40;;
2892;SDS011;1456;51.840;12.184;2023-05-10T07:33:05;7.50;;;7.37;;
2892;SDS011;1456;51.840;12.184;2023-05-10T07:35:32;7.80;;;7.70;;
2892;SDS011;1456;51.840;12.184;2023-05-10T07:37:57;7.00;;;6.90;;
2892;SDS011;1456;51.840;12.184;2023-05-10T07:40:24;7.70;;;7.60;;
2892;SDS011;1456;51.840;12.184;2023-05-10T07:42:52;7.20;;;7.10;;
2892;SDS011;1456;51.840;12.184;2023-05-10T07:45:21;7.23;;;7.13;;
2892;SDS011;1456;51.840;12.184;2023-05-10T07:47:47;9.07;;;8.87;;
2892;SDS011;1456;51.840;12.184;2023-05-10T07:50:13;8.70;;;8.60;;
2892;SDS011;1456;51.840;12.184;2023-05-10T07:52:39;8.80;;;8.70;;
2892;SDS011;1456;51.840;12.184;2023-05-10T07:55:05;15.70;;;15.40;;
2892;SDS011;1456;51.840;12.184;2023-05-10T07:57:33;15.43;;;15.13;;
2892;SDS011;1456;51.840;12.184;2023-05-10T08:00:02;16.73;;;16.33;;
2892;SDS011;1456;51.840;12.184;2023-05-10T08:02:28;15.37;;;15.07;;
2892;SDS011;1456;51.840;12.184;2023-05-10T08:04:54;16.50;;;16.20;;
2892;SDS011;1456;51.840;12.184;2023-05-10T08:07:20;16.17;;;15.87;;
2892;SDS011;1456;51.840;12.184;2023-05-10T08:09:46;17.70;;;17.20;;
2892;SDS011;1456;51.840;12.184;2023-05-10T08:12:12;16.07;;;15.67;;
2892;SDS011;1456;51.840;12.184;2023-05-10T08:14:37;17.07;;;16.70;;
2892;SDS011;1456;51.840;12.184;2023-05-10T08:17:03;17.57;;;17.17;;
2892;SDS011;1456;51.840;12.184;2023-05-10T08:19:29;16.17;;;15.87;;
2892;SDS011;1456;51.840;12.184;2023-05-10T08:21:54;10.60;;;10.20;;
2892;SDS011;1456;51.840;12.184;2023-05-10T08:24:20;16.23;;;15.93;;
2892;SDS011;1456;51.840;12.184;2023-05-10T08:26:47;18.30;;;17.80;;
2892;SDS011;1456;51.840;12.184;2023-05-10T08:29:14;16.80;;;16.03;;
2892;SDS011;1456;51.840;12.184;2023-05-10T08:31:40;16.10;;;15.70;;
2892;SDS011;1456;51.840;12.184;2023-05-10T08:34:05;17.63;;;17.23;;
2892;SDS011;1456;51.840;12.184;2023-05-10T08:36:31;16.40;;;16.10;;
2892;SDS011;1456;51.840;12.184;2023-05-10T08:38:57;8.73;;;8.63;;
2892;SDS011;1456;51.840;12.184;2023-05-10T08:41:23;15.83;;;15.53;;
2892;SDS011;1456;51.840;12.184;2023-05-10T08:43:51;16.27;;;15.93;;
2892;SDS011;1456;51.840;12.184;2023-05-10T08:46:18;12.20;;;12.00;;
2892;SDS011;1456;51.840;12.184;2023-05-10T08:48:45;9.97;;;9.80;;
2892;SDS011;1456;51.840;12.184;2023-05-10T08:51:17;9.83;;;9.70;;
2892;SDS011;1456;51.840;12.184;2023-05-10T08:53:45;9.83;;;9.63;;
2892;SDS011;1456;51.840;12.184;2023-05-10T08:56:12;10.43;;;10.03;;
2892;SDS011;1456;51.840;12.184;2023-05-10T08:58:40;9.70;;;9.50;;
2892;SDS011;1456;51.840;12.184;2023-05-10T09:01:06;9.50;;;9.40;;
2892;SDS011;1456;51.840;12.184;2023-05-10T09:03:34;10.23;;;10.03;;
2892;SDS011;1456;51.840;12.184;2023-05-10T09:06:09;9.70;;;9.50;;
2892;SDS011;1456;51.840;12.184;2023-05-10T09:08:38;8.93;;;8.53;;
2892;SDS011;1456;51.840;12.184;2023-05-10T09:11:05;8.60;;;8.50;;
2892;SDS011;1456;51.840;12.184;2023-05-10T09:13:31;9.20;;;9.00;;
2892;SDS011;1456;51.840;12.184;2023-05-10T09:15:57;8.70;;;8.60;;
2892;SDS011;1456;51.840;12.184;2023-05-10T09:18:23;9.40;;;9.23;;
2892;SDS011;1456;51.840;12.184;2023-05-10T09:23:24;9.57;;;9.43;;
2892;SDS011;1456;51.840;12.184;2023-05-10T09:26:03;9.40;;;9.30;;
2892;SDS011;1456;51.840;12.184;2023-05-10T09:31:15;9.50;;;9.30;;
2892;SDS011;1456;51.840;12.184;2023-05-10T09:33:44;9.67;;;9.47;;
2892;SDS011;1456;51.840;12.184;2023-05-10T09:36:11;9.10;;;9.00;;
2892;SDS011;1456;51.840;12.184;2023-05-10T09:38:47;9.40;;;9.30;;
2892;SDS011;1456;51.840;12.184;2023-05-10T09:41:15;9.70;;;9.50;;
2892;SDS011;1456;51.840;12.184;2023-05-10T09:43:45;9.67;;;9.33;;
2892;SDS011;1456;51.840;12.184;2023-05-10T09:46:11;10.23;;;10.03;;
2892;SDS011;1456;51.840;12.184;2023-05-10T09:48:44;9.00;;;8.90;;
2892;SDS011;1456;51.840;12.184;2023-05-10T09:51:26;9.50;;;9.30;;
2892;SDS011;1456;51.840;12.184;2023-05-10T09:54:12;9.70;;;9.50;;
2892;SDS011;1456;51.840;12.184;2023-05-10T09:56:40;10.33;;;10.13;;
2892;SDS011;1456;51.840;12.184;2023-05-10T09:59:07;10.53;;;10.30;;
2892;SDS011;1456;51.840;12.184;2023-05-10T10:01:34;10.60;;;10.40;;
2892;SDS011;1456;51.840;12.184;2023-05-10T10:04:04;9.33;;;9.23;;
2892;SDS011;1456;51.840;12.184;2023-05-10T10:06:40;9.90;;;9.73;;
2892;SDS011;1456;51.840;12.184;2023-05-10T10:09:06;8.37;;;8.27;;
2892;SDS011;1456;51.840;12.184;2023-05-10T10:11:34;8.73;;;8.63;;
2892;SDS011;1456;51.840;12.184;2023-05-10T10:14:01;8.83;;;8.73;;
2892;SDS011;1456;51.840;12.184;2023-05-10T10:16:32;8.43;;;8.33;;
2892;SDS011;1456;51.840;12.184;2023-05-10T10:19:03;8.73;;;8.50;;
2892;SDS011;1456;51.840;12.184;2023-05-10T10:21:29;8.13;;;7.93;;
2892;SDS011;1456;51.840;12.184;2023-05-10T10:23:56;7.70;;;7.60;;
2892;SDS011;1456;51.840;12.184;2023-05-10T10:26:21;8.13;;;8.03;;
2892;SDS011;1456;51.840;12.184;2023-05-10T10:36:52;6.87;;;6.77;;
2892;SDS011;1456;51.840;12.184;2023-05-10T10:39:19;6.67;;;6.57;;
2892;SDS011;1456;51.840;12.184;2023-05-10T10:41:55;7.40;;;7.17;;
2892;SDS011;1456;51.840;12.184;2023-05-10T10:50:23;6.47;;;6.37;;
2892;SDS011;1456;51.840;12.184;2023-05-10T10:52:25;5.77;;;5.77;;
2892;SDS011;1456;51.840;12.184;2023-05-10T10:55:05;8.73;;;6.10;;
2892;SDS011;1456;51.840;12.184;2023-05-10T10:57:44;5.50;;;5.40;;
2892;SDS011;1456;51.840;12.184;2023-05-10T11:00:29;5.20;;;5.20;;
2892;SDS011;1456;51.840;12.184;2023-05-10T11:18:51;3.73;;;2.97;;
2892;SDS011;1456;51.840;12.184;2023-05-10T11:21:18;2.53;;;2.50;;
2892;SDS011;1456;51.840;12.184;2023-05-10T11:26:12;1.07;;;1.07;;
2892;SDS011;1456;51.840;12.184;2023-05-10T11:28:44;1.23;;;1.13;;
2892;SDS011;1456;51.840;12.184;2023-05-10T11:31:14;1.23;;;1.23;;
2892;SDS011;1456;51.840;12.184;2023-05-10T11:36:26;2.63;;;1.17;;
2892;SDS011;1456;51.840;12.184;2023-05-10T11:38:54;1.30;;;1.30;;
2892;SDS011;1456;51.840;12.184;2023-05-10T11:41:21;0.63;;;0.63;;
2892;SDS011;1456;51.840;12.184;2023-05-10T11:43:51;1.10;;;1.10;;
2892;SDS011;1456;51.840;12.184;2023-05-10T11:46:22;1.77;;;1.27;;
2892;SDS011;1456;51.840;12.184;2023-05-10T11:48:49;0.67;;;0.60;;
2892;SDS011;1456;51.840;12.184;2023-05-10T11:51:24;6.90;;;1.47;;
2892;SDS011;1456;51.840;12.184;2023-05-10T11:53:52;1.33;;;1.27;;
2892;SDS011;1456;51.840;12.184;2023-05-10T11:56:19;1.03;;;1.03;;
2892;SDS011;1456;51.840;12.184;2023-05-10T11:58:45;1.13;;;1.13;;
2892;SDS011;1456;51.840;12.184;2023-05-10T12:01:21;0.73;;;0.73;;
2892;SDS011;1456;51.840;12.184;2023-05-10T12:03:48;0.47;;;0.47;;
2892;SDS011;1456;51.840;12.184;2023-05-10T12:06:17;1.60;;;1.27;;
2892;SDS011;1456;51.840;12.184;2023-05-10T12:08:44;1.03;;;1.03;;
2892;SDS011;1456;51.840;12.184;2023-05-10T12:11:11;1.00;;;1.00;;
2892;SDS011;1456;51.840;12.184;2023-05-10T12:13:38;1.60;;;1.50;;
2892;SDS011;1456;51.840;12.184;2023-05-10T12:18:51;1.97;;;1.87;;
2892;SDS011;1456;51.840;12.184;2023-05-10T12:21:18;2.37;;;2.17;;
2892;SDS011;1456;51.840;12.184;2023-05-10T12:23:45;0.90;;;0.90;;
2892;SDS011;1456;51.840;12.184;2023-05-10T12:26:13;11.10;;;10.00;;
2892;SDS011;1456;51.840;12.184;2023-05-10T12:28:39;2.23;;;2.13;;
2892;SDS011;1456;51.840;12.184;2023-05-10T12:31:05;1.57;;;1.47;;
2892;SDS011;1456;51.840;12.184;2023-05-10T12:36:04;0.90;;;0.90;;
2892;SDS011;1456;51.840;12.184;2023-05-10T12:40:59;1.77;;;0.77;;
2892;SDS011;1456;51.840;12.184;2023-05-10T12:43:30;1.23;;;1.13;;
2892;SDS011;1456;51.840;12.184;2023-05-10T12:45:56;1.60;;;1.40;;
2892;SDS011;1456;51.840;12.184;2023-05-10T12:48:22;1.17;;;1.13;;
2892;SDS011;1456;51.840;12.184;2023-05-10T12:50:48;0.80;;;0.80;;
2892;SDS011;1456;51.840;12.184;2023-05-10T12:53:14;2.50;;;1.40;;
2892;SDS011;1456;51.840;12.184;2023-05-10T12:55:44;2.13;;;2.03;;
2892;SDS011;1456;51.840;12.184;2023-05-10T12:58:10;0.80;;;0.80;;
2892;SDS011;1456;51.840;12.184;2023-05-10T13:00:37;4.47;;;1.33;;
2892;SDS011;1456;51.840;12.184;2023-05-10T13:03:03;1.50;;;0.60;;
2892;SDS011;1456;51.840;12.184;2023-05-10T13:05:32;2.07;;;1.97;;
2892;SDS011;1456;51.840;12.184;2023-05-10T13:07:58;1.83;;;1.73;;
2892;SDS011;1456;51.840;12.184;2023-05-10T13:10:25;1.03;;;1.03;;
2892;SDS011;1456;51.840;12.184;2023-05-10T13:12:50;1.43;;;1.10;;
2892;SDS011;1456;51.840;12.184;2023-05-10T13:15:16;1.17;;;1.13;;
2892;SDS011;1456;51.840;12.184;2023-05-10T13:17:43;1.13;;;1.13;;
2892;SDS011;1456;51.840;12.184;2023-05-10T13:20:10;0.83;;;0.83;;
2892;SDS011;1456;51.840;12.184;2023-05-10T13:22:36;0.83;;;0.83;;
2892;SDS011;1456;51.840;12.184;2023-05-10T13:25:01;0.60;;;0.60;;
2892;SDS011;1456;51.840;12.184;2023-05-10T13:27:28;1.53;;;1.53;;
2892;SDS011;1456;51.840;12.184;2023-05-10T13:29:54;1.00;;;1.00;;
2892;SDS011;1456;51.840;12.184;2023-05-10T13:32:21;0.97;;;0.97;;
2892;SDS011;1456;51.840;12.184;2023-05-10T13:34:47;1.03;;;1.03;;
2892;SDS011;1456;51.840;12.184;2023-05-10T13:37:13;1.37;;;1.27;;
2892;SDS011;1456;51.840;12.184;2023-05-10T13:39:38;0.70;;;0.70;;
2892;SDS011;1456;51.840;12.184;2023-05-10T13:42:04;1.70;;;1.33;;
2892;SDS011;1456;51.840;12.184;2023-05-10T13:44:30;1.67;;;1.57;;
2892;SDS011;1456;51.840;12.184;2023-05-10T13:46:56;1.43;;;1.33;;
2892;SDS011;1456;51.840;12.184;2023-05-10T13:49:22;2.07;;;2.00;;
2892;SDS011;1456;51.840;12.184;2023-05-10T13:51:49;0.60;;;0.60;;
2892;SDS011;1456;51.840;12.184;2023-05-10T13:54:15;0.70;;;0.70;;
2892;SDS011;1456;51.840;12.184;2023-05-10T13:56:44;10.57;;;1.57;;
2892;SDS011;1456;51.840;12.184;2023-05-10T13:59:12;0.70;;;0.70;;
2892;SDS011;1456;51.840;12.184;2023-05-10T14:01:38;1.90;;;1.27;;
2892;SDS011;1456;51.840;12.184;2023-05-10T14:04:04;3.23;;;3.03;;
2892;SDS011;1456;51.840;12.184;2023-05-10T14:06:31;0.73;;;0.73;;
2892;SDS011;1456;51.840;12.184;2023-05-10T14:08:57;5.03;;;2.57;;
2892;SDS011;1456;51.840;12.184;2023-05-10T14:11:24;1.67;;;1.57;;
2892;SDS011;1456;51.840;12.184;2023-05-10T14:13:51;1.07;;;1.07;;
2892;SDS011;1456;51.840;12.184;2023-05-10T14:16:20;1.00;;;0.87;;
2892;SDS011;1456;51.840;12.184;2023-05-10T14:18:46;1.00;;;1.00;;
2892;SDS011;1456;51.840;12.184;2023-05-10T14:21:11;0.50;;;0.50;;
2892;SDS011;1456;51.840;12.184;2023-05-10T14:23:39;0.80;;;0.80;;
2892;SDS011;1456;51.840;12.184;2023-05-10T14:26:04;0.60;;;0.60;;
2892;SDS011;1456;51.840;12.184;2023-05-10T14:28:31;1.10;;;1.10;;
2892;SDS011;1456;51.840;12.184;2023-05-10T14:30:59;1.10;;;1.10;;
2892;SDS011;1456;51.840;12.184;2023-05-10T14:33:24;0.80;;;0.80;;
2892;SDS011;1456;51.840;12.184;2023-05-10T14:35:51;1.67;;;1.43;;
2892;SDS011;1456;51.840;12.184;2023-05-10T14:38:17;1.17;;;1.17;;
2892;SDS011;1456;51.840;12.184;2023-05-10T14:40:42;1.03;;;1.03;;
2892;SDS011;1456;51.840;12.184;2023-05-10T14:43:08;1.57;;;1.57;;
2892;SDS011;1456;51.840;12.184;2023-05-10T14:45:34;1.33;;;1.23;;
2892;SDS011;1456;51.840;12.184;2023-05-10T14:48:00;4.67;;;2.70;;
2892;SDS011;1456;51.840;12.184;2023-05-10T14:50:26;3.27;;;1.80;;
2892;SDS011;1456;51.840;12.184;2023-05-10T14:52:51;1.13;;;1.13;;
2892;SDS011;1456;51.840;12.184;2023-05-10T14:55:18;1.13;;;1.13;;
2892;SDS011;1456;51.840;12.184;2023-05-10T14:57:44;1.37;;;1.27;;
2892;SDS011;1456;51.840;12.184;2023-05-10T15:00:12;1.17;;;1.17;;
2892;SDS011;1456;51.840;12.184;2023-05-10T15:02:40;1.67;;;1.57;;
2892;SDS011;1456;51.840;12.184;2023-05-10T15:05:06;1.27;;;1.17;;
2892;SDS011;1456;51.840;12.184;2023-05-10T15:07:33;1.20;;;0.80;;
2892;SDS011;1456;51.840;12.184;2023-05-10T15:10:01;1.63;;;1.50;;
2892;SDS011;1456;51.840;12.184;2023-05-10T15:15:06;2.53;;;2.43;;
2892;SDS011;1456;51.840;12.184;2023-05-10T15:17:39;1.30;;;1.20;;
2892;SDS011;1456;51.840;12.184;2023-05-10T15:20:13;1.27;;;1.00;;
2892;SDS011;1456;51.840;12.184;2023-05-10T15:22:41;0.93;;;0.93;;
2892;SDS011;1456;51.840;12.184;2023-05-10T15:25:07;0.40;;;0.40;;
2892;SDS011;1456;51.840;12.184;2023-05-10T15:27:33;2.50;;;2.30;;
2892;SDS011;1456;51.840;12.184;2023-05-10T15:29:58;2.90;;;2.70;;
2892;SDS011;1456;51.840;12.184;2023-05-10T15:32:25;1.60;;;1.50;;
2892;SDS011;1456;51.840;12.184;2023-05-10T15:34:51;2.60;;;1.27;;
2892;SDS011;1456;51.840;12.184;2023-05-10T15:37:18;2.13;;;1.83;;
2892;SDS011;1456;51.840;12.184;2023-05-10T15:39:49;1.93;;;1.83;;
2892;SDS011;1456;51.840;12.184;2023-05-10T15:42:21;2.40;;;0.63;;
2892;SDS011;1456;51.840;12.184;2023-05-10T15:44:49;0.80;;;0.80;;
2892;SDS011;1456;51.840;12.184;2023-05-10T15:47:15;1.43;;;1.33;;
2892;SDS011;1456;51.840;12.184;2023-05-10T15:49:40;1.27;;;1.20;;
2892;SDS011;1456;51.840;12.184;2023-05-10T15:52:06;1.00;;;0.80;;
2892;SDS011;1456;51.840;12.184;2023-05-10T15:54:32;0.70;;;0.70;;
2892;SDS011;1456;51.840;12.184;2023-05-10T15:56:57;2.90;;;1.70;;
2892;SDS011;1456;51.840;12.184;2023-05-10T15:59:24;0.50;;;0.50;;
2892;SDS011;1456;51.840;12.184;2023-05-10T16:01:50;1.60;;;1.47;;
2892;SDS011;1456;51.840;12.184;2023-05-10T16:04:17;1.60;;;1.27;;
2892;SDS011;1456;51.840;12.184;2023-05-10T16:06:44;2.83;;;0.93;;
2892;SDS011;1456;51.840;12.184;2023-05-10T16:09:11;1.37;;;1.03;;
2892;SDS011;1456;51.840;12.184;2023-05-10T16:11:36;1.73;;;1.50;;
2892;SDS011;1456;51.840;12.184;2023-05-10T16:14:02;1.10;;;1.10;;
2892;SDS011;1456;51.840;12.184;2023-05-10T16:16:28;1.50;;;1.40;;
2892;SDS011;1456;51.840;12.184;2023-05-10T16:18:55;1.20;;;1.10;;
2892;SDS011;1456;51.840;12.184;2023-05-10T16:21:23;0.80;;;0.80;;
2892;SDS011;1456;51.840;12.184;2023-05-10T16:23:49;0.73;;;0.73;;
2892;SDS011;1456;51.840;12.184;2023-05-10T16:26:15;0.60;;;0.60;;
2892;SDS011;1456;51.840;12.184;2023-05-10T16:28:41;2.30;;;1.07;;
2892;SDS011;1456;51.840;12.184;2023-05-10T16:31:13;0.93;;;0.93;;
2892;SDS011;1456;51.840;12.184;2023-05-10T16:33:40;0.80;;;0.80;;
2892;SDS011;1456;51.840;12.184;2023-05-10T16:36:08;0.70;;;0.70;;
2892;SDS011;1456;51.840;12.184;2023-05-10T16:38:34;0.70;;;0.70;;
2892;SDS011;1456;51.840;12.184;2023-05-10T16:41:03;1.60;;;1.50;;
2892;SDS011;1456;51.840;12.184;2023-05-10T16:43:29;1.47;;;1.37;;